sensor_id;sensor_type;location;lat;lon;timestamp;P1;durP1;ratioP1;P2;durP2;ratioP2
19891;SDS011;10108;50.142;8.724;2024-01-06T00:00:01;11.43;;;4.40;;
19891;SDS011;10108;50.142;8.724;2024-01-06T00:02:37;10.80;;;4.50;;
19891;SDS011;10108;50.142;8.724;2024-01-06T00:05:03;9.82;;;4.05;;
19891;SDS011;10108;50.142;8.724;2024-01-06T00:07:30;10.57;;;4.20;;
19891;SDS011;10108;50.142;8.724;2024-01-06T00:09:57;11.18;;;4.68;;
19891;SDS011;10108;50.142;8.724;2024-01-06T00:12:23;9.73;;;4.38;;
19891;SDS011;10108;50.142;8.724;2024-01-06T00:14:49;9.45;;;4.35;;
19891;SDS011;10108;50.142;8.724;2024-01-06T00:17:15;13.18;;;4.65;;
19891;SDS011;10108;50.142;8.724;2024-01-06T00:19:42;9.25;;;4.38;;
19891;SDS011;10108;50.142;8.724;2024-01-06T00:22:08;13.88;;;4.40;;
19891;SDS011;10108;50.142;8.724;2024-01-06T00:24:34;10.20;;;4.55;;
19891;SDS011;10108;50.142;8.724;2024-01-06T00:27:00;12.15;;;4.28;;
19891;SDS011;10108;50.142;8.724;2024-01-06T00:29:26;10.48;;;4.30;;
19891;SDS011;10108;50.142;8.724;2024-01-06T00:31:53;7.63;;;3.88;;
19891;SDS011;10108;50.142;8.724;2024-01-06T00:34:19;10.25;;;4.10;;
19891;SDS011;10108;50.142;8.724;2024-01-06T00:36:45;9.60;;;4.10;;
19891;SDS011;10108;50.142;8.724;2024-01-06T00:39:11;12.20;;;4.28;;
19891;SDS011;10108;50.142;8.724;2024-01-06T00:41:37;9.85;;;4.50;;
19891;SDS011;10108;50.142;8.724;2024-01-06T00:44:03;8.88;;;4.28;;
19891;SDS011;10108;50.142;8.724;2024-01-06T00:46:29;10.48;;;4.35;;
19891;SDS011;10108;50.142;8.724;2024-01-06T00:48:56;8.57;;;4.20;;
19891;SDS011;10108;50.142;8.724;2024-01-06T00:51:22;9.23;;;4.35;;
19891;SDS011;10108;50.142;8.724;2024-01-06T00:53:48;11.32;;;4.32;;
19891;SDS011;10108;50.142;8.724;2024-01-06T00:56:14;10.75;;;4.18;;
19891;SDS011;10108;50.142;8.724;2024-01-06T00:58:40;14.13;;;4.43;;
19891;SDS011;10108;50.142;8.724;2024-01-06T01:01:06;10.50;;;4.10;;
19891;SDS011;10108;50.142;8.724;2024-01-06T01:03:33;8.32;;;3.70;;
19891;SDS011;10108;50.142;8.724;2024-01-06T01:05:59;7.32;;;3.90;;
19891;SDS011;10108;50.142;8.724;2024-01-06T01:08:25;11.40;;;4.10;;
19891;SDS011;10108;50.142;8.724;2024-01-06T01:10:51;8.30;;;4.40;;
19891;SDS011;10108;50.142;8.724;2024-01-06T01:13:18;9.65;;;4.13;;
19891;SDS011;10108;50.142;8.724;2024-01-06T01:15:44;10.82;;;4.60;;
19891;SDS011;10108;50.142;8.724;2024-01-06T01:18:10;8.85;;;4.03;;
19891;SDS011;10108;50.142;8.724;2024-01-06T01:20:36;9.63;;;4.30;;
19891;SDS011;10108;50.142;8.724;2024-01-06T01:23:02;10.82;;;4.50;;
19891;SDS011;10108;50.142;8.724;2024-01-06T01:25:28;8.55;;;4.32;;
19891;SDS011;10108;50.142;8.724;2024-01-06T01:27:54;12.55;;;4.50;;
19891;SDS011;10108;50.142;8.724;2024-01-06T01:30:20;12.10;;;4.70;;
19891;SDS011;10108;50.142;8.724;2024-01-06T01:32:47;9.57;;;4.20;;
19891;SDS011;10108;50.142;8.724;2024-01-06T01:35:13;11.52;;;4.30;;
19891;SDS011;10108;50.142;8.724;2024-01-06T01:37:39;10.45;;;4.22;;
19891;SDS011;10108;50.142;8.724;2024-01-06T01:40:05;9.32;;;4.00;;
19891;SDS011;10108;50.142;8.724;2024-01-06T01:42:32;11.50;;;4.25;;
19891;SDS011;10108;50.142;8.724;2024-01-06T01:44:58;8.55;;;4.53;;
19891;SDS011;10108;50.142;8.724;2024-01-06T01:47:25;12.30;;;4.20;;
19891;SDS011;10108;50.142;8.724;2024-01-06T01:49:52;11.35;;;4.40;;
19891;SDS011;10108;50.142;8.724;2024-01-06T01:52:20;9.45;;;4.18;;
19891;SDS011;10108;50.142;8.724;2024-01-06T01:54:46;10.93;;;4.07;;
19891;SDS011;10108;50.142;8.724;2024-01-06T01:57:13;10.55;;;4.40;;
19891;SDS011;10108;50.142;8.724;2024-01-06T01:59:41;12.70;;;4.22;;
19891;SDS011;10108;50.142;8.724;2024-01-06T02:02:08;12.55;;;4.43;;
19891;SDS011;10108;50.142;8.724;2024-01-06T02:04:34;12.85;;;4.22;;
19891;SDS011;10108;50.142;8.724;2024-01-06T02:07:01;11.38;;;4.20;;
19891;SDS011;10108;50.142;8.724;2024-01-06T02:09:27;9.07;;;3.92;;
19891;SDS011;10108;50.142;8.724;2024-01-06T02:11:57;7.63;;;4.15;;
19891;SDS011;10108;50.142;8.724;2024-01-06T02:14:24;10.75;;;3.97;;
19891;SDS011;10108;50.142;8.724;2024-01-06T02:16:50;12.30;;;4.50;;
19891;SDS011;10108;50.142;8.724;2024-01-06T02:19:16;11.55;;;4.10;;
19891;SDS011;10108;50.142;8.724;2024-01-06T02:21:43;10.18;;;4.22;;
19891;SDS011;10108;50.142;8.724;2024-01-06T02:24:10;10.93;;;4.00;;
19891;SDS011;10108;50.142;8.724;2024-01-06T02:26:36;9.55;;;4.28;;
19891;SDS011;10108;50.142;8.724;2024-01-06T02:29:02;11.68;;;4.18;;
19891;SDS011;10108;50.142;8.724;2024-01-06T02:31:29;8.50;;;3.97;;
19891;SDS011;10108;50.142;8.724;2024-01-06T02:33:55;9.50;;;4.20;;
19891;SDS011;10108;50.142;8.724;2024-01-06T02:36:21;12.10;;;4.38;;
19891;SDS011;10108;50.142;8.724;2024-01-06T02:38:47;8.07;;;3.90;;
19891;SDS011;10108;50.142;8.724;2024-01-06T02:41:13;8.80;;;3.90;;
19891;SDS011;10108;50.142;8.724;2024-01-06T02:43:39;11.88;;;4.03;;
19891;SDS011;10108;50.142;8.724;2024-01-06T02:46:06;10.10;;;4.13;;
19891;SDS011;10108;50.142;8.724;2024-01-06T02:48:33;9.55;;;4.30;;
19891;SDS011;10108;50.142;8.724;2024-01-06T02:50:59;9.48;;;4.20;;
19891;SDS011;10108;50.142;8.724;2024-01-06T02:53:25;8.23;;;3.80;;
19891;SDS011;10108;50.142;8.724;2024-01-06T02:55:51;8.38;;;3.90;;
19891;SDS011;10108;50.142;8.724;2024-01-06T02:58:17;13.68;;;3.97;;
19891;SDS011;10108;50.142;8.724;2024-01-06T03:00:43;10.35;;;4.45;;
19891;SDS011;10108;50.142;8.724;2024-01-06T03:03:09;8.13;;;3.70;;
19891;SDS011;10108;50.142;8.724;2024-01-06T03:05:35;10.60;;;4.13;;
19891;SDS011;10108;50.142;8.724;2024-01-06T03:08:03;11.02;;;3.85;;
19891;SDS011;10108;50.142;8.724;2024-01-06T03:10:29;10.77;;;4.00;;
19891;SDS011;10108;50.142;8.724;2024-01-06T03:12:55;9.77;;;4.05;;
19891;SDS011;10108;50.142;8.724;2024-01-06T03:15:22;9.90;;;4.22;;
19891;SDS011;10108;50.142;8.724;2024-01-06T03:17:48;11.52;;;4.10;;
19891;SDS011;10108;50.142;8.724;2024-01-06T03:20:14;8.43;;;4.22;;
19891;SDS011;10108;50.142;8.724;2024-01-06T03:22:40;11.15;;;4.15;;
19891;SDS011;10108;50.142;8.724;2024-01-06T03:25:06;11.00;;;4.10;;
19891;SDS011;10108;50.142;8.724;2024-01-06T03:27:33;13.45;;;4.32;;
19891;SDS011;10108;50.142;8.724;2024-01-06T03:29:59;8.07;;;4.05;;
19891;SDS011;10108;50.142;8.724;2024-01-06T03:32:25;9.73;;;3.80;;
19891;SDS011;10108;50.142;8.724;2024-01-06T03:34:51;8.45;;;4.03;;
19891;SDS011;10108;50.142;8.724;2024-01-06T03:37:17;9.05;;;4.15;;
19891;SDS011;10108;50.142;8.724;2024-01-06T03:39:43;9.35;;;4.32;;
19891;SDS011;10108;50.142;8.724;2024-01-06T03:42:09;13.77;;;4.65;;
19891;SDS011;10108;50.142;8.724;2024-01-06T03:44:36;13.10;;;4.50;;
19891;SDS011;10108;50.142;8.724;2024-01-06T03:47:02;11.13;;;4.43;;
19891;SDS011;10108;50.142;8.724;2024-01-06T03:49:28;9.23;;;4.13;;
19891;SDS011;10108;50.142;8.724;2024-01-06T03:51:54;12.40;;;4.68;;
19891;SDS011;10108;50.142;8.724;2024-01-06T03:54:20;9.20;;;4.10;;
19891;SDS011;10108;50.142;8.724;2024-01-06T03:56:46;13.38;;;4.57;;
19891;SDS011;10108;50.142;8.724;2024-01-06T03:59:12;12.95;;;4.63;;
19891;SDS011;10108;50.142;8.724;2024-01-06T04:01:39;10.75;;;4.20;;
19891;SDS011;10108;50.142;8.724;2024-01-06T04:04:05;15.45;;;4.25;;
19891;SDS011;10108;50.142;8.724;2024-01-06T04:06:31;9.60;;;4.47;;
19891;SDS011;10108;50.142;8.724;2024-01-06T04:08:57;9.73;;;4.57;;
19891;SDS011;10108;50.142;8.724;2024-01-06T04:11:24;10.80;;;4.10;;
19891;SDS011;10108;50.142;8.724;2024-01-06T04:13:50;7.70;;;4.03;;
19891;SDS011;10108;50.142;8.724;2024-01-06T04:16:16;10.20;;;4.15;;
19891;SDS011;10108;50.142;8.724;2024-01-06T04:18:42;14.70;;;4.57;;
19891;SDS011;10108;50.142;8.724;2024-01-06T04:21:08;9.38;;;4.32;;
19891;SDS011;10108;50.142;8.724;2024-01-06T04:23:34;8.82;;;4.20;;
19891;SDS011;10108;50.142;8.724;2024-01-06T04:26:00;12.50;;;4.55;;
19891;SDS011;10108;50.142;8.724;2024-01-06T04:28:27;9.55;;;4.28;;
19891;SDS011;10108;50.142;8.724;2024-01-06T04:30:53;10.30;;;4.65;;
19891;SDS011;10108;50.142;8.724;2024-01-06T04:33:19;10.38;;;4.50;;
19891;SDS011;10108;50.142;8.724;2024-01-06T04:35:45;9.73;;;4.60;;
19891;SDS011;10108;50.142;8.724;2024-01-06T04:38:11;9.07;;;4.18;;
19891;SDS011;10108;50.142;8.724;2024-01-06T04:40:38;14.30;;;4.78;;
19891;SDS011;10108;50.142;8.724;2024-01-06T04:43:04;12.77;;;4.45;;
19891;SDS011;10108;50.142;8.724;2024-01-06T04:45:30;12.18;;;4.55;;
19891;SDS011;10108;50.142;8.724;2024-01-06T04:47:56;11.45;;;4.60;;
19891;SDS011;10108;50.142;8.724;2024-01-06T04:50:22;8.27;;;4.22;;
19891;SDS011;10108;50.142;8.724;2024-01-06T04:52:48;11.63;;;4.22;;
19891;SDS011;10108;50.142;8.724;2024-01-06T04:55:14;9.48;;;4.32;;
19891;SDS011;10108;50.142;8.724;2024-01-06T04:57:40;11.40;;;4.07;;
19891;SDS011;10108;50.142;8.724;2024-01-06T05:00:07;11.18;;;4.00;;
19891;SDS011;10108;50.142;8.724;2024-01-06T05:02:33;12.90;;;4.03;;
19891;SDS011;10108;50.142;8.724;2024-01-06T05:05:00;12.15;;;4.28;;
19891;SDS011;10108;50.142;8.724;2024-01-06T05:07:26;7.93;;;3.97;;
19891;SDS011;10108;50.142;8.724;2024-01-06T05:09:52;9.07;;;4.22;;
19891;SDS011;10108;50.142;8.724;2024-01-06T05:12:18;12.35;;;4.40;;
19891;SDS011;10108;50.142;8.724;2024-01-06T05:14:44;10.98;;;4.30;;
19891;SDS011;10108;50.142;8.724;2024-01-06T05:17:10;10.88;;;3.90;;
19891;SDS011;10108;50.142;8.724;2024-01-06T05:19:36;9.88;;;4.20;;
19891;SDS011;10108;50.142;8.724;2024-01-06T05:22:02;10.35;;;4.30;;
19891;SDS011;10108;50.142;8.724;2024-01-06T05:24:29;14.07;;;4.10;;
19891;SDS011;10108;50.142;8.724;2024-01-06T05:26:55;9.27;;;4.10;;
19891;SDS011;10108;50.142;8.724;2024-01-06T05:29:21;7.05;;;3.80;;
19891;SDS011;10108;50.142;8.724;2024-01-06T05:31:47;9.73;;;4.43;;
19891;SDS011;10108;50.142;8.724;2024-01-06T05:34:14;10.88;;;4.07;;
19891;SDS011;10108;50.142;8.724;2024-01-06T05:36:41;12.40;;;4.47;;
19891;SDS011;10108;50.142;8.724;2024-01-06T05:39:07;11.23;;;4.82;;
19891;SDS011;10108;50.142;8.724;2024-01-06T05:41:40;9.45;;;4.05;;
19891;SDS011;10108;50.142;8.724;2024-01-06T05:44:06;8.48;;;4.03;;
19891;SDS011;10108;50.142;8.724;2024-01-06T05:46:33;9.38;;;4.40;;
19891;SDS011;10108;50.142;8.724;2024-01-06T05:49:00;9.77;;;4.30;;
19891;SDS011;10108;50.142;8.724;2024-01-06T05:51:26;10.70;;;4.50;;
19891;SDS011;10108;50.142;8.724;2024-01-06T05:53:52;9.85;;;4.20;;
19891;SDS011;10108;50.142;8.724;2024-01-06T05:56:25;10.70;;;4.43;;
19891;SDS011;10108;50.142;8.724;2024-01-06T05:58:52;8.90;;;4.53;;
19891;SDS011;10108;50.142;8.724;2024-01-06T06:01:19;9.70;;;4.70;;
19891;SDS011;10108;50.142;8.724;2024-01-06T06:03:46;11.55;;;4.40;;
19891;SDS011;10108;50.142;8.724;2024-01-06T06:06:13;8.93;;;4.32;;
19891;SDS011;10108;50.142;8.724;2024-01-06T06:08:40;7.93;;;3.80;;
19891;SDS011;10108;50.142;8.724;2024-01-06T06:11:08;11.02;;;4.57;;
19891;SDS011;10108;50.142;8.724;2024-01-06T06:13:38;13.20;;;4.68;;
19891;SDS011;10108;50.142;8.724;2024-01-06T06:16:08;9.82;;;4.22;;
19891;SDS011;10108;50.142;8.724;2024-01-06T06:18:35;8.65;;;3.88;;
19891;SDS011;10108;50.142;8.724;2024-01-06T06:21:01;9.45;;;4.32;;
19891;SDS011;10108;50.142;8.724;2024-01-06T06:23:32;11.45;;;4.43;;
19891;SDS011;10108;50.142;8.724;2024-01-06T06:25:58;11.55;;;4.28;;
19891;SDS011;10108;50.142;8.724;2024-01-06T06:28:25;12.25;;;4.57;;
19891;SDS011;10108;50.142;8.724;2024-01-06T06:30:52;10.60;;;4.43;;
19891;SDS011;10108;50.142;8.724;2024-01-06T06:33:18;11.30;;;4.50;;
19891;SDS011;10108;50.142;8.724;2024-01-06T06:35:44;12.45;;;4.50;;
19891;SDS011;10108;50.142;8.724;2024-01-06T06:38:10;10.85;;;4.70;;
19891;SDS011;10108;50.142;8.724;2024-01-06T06:40:36;13.40;;;4.60;;
19891;SDS011;10108;50.142;8.724;2024-01-06T06:43:02;9.73;;;4.70;;
19891;SDS011;10108;50.142;8.724;2024-01-06T06:45:29;11.05;;;4.65;;
19891;SDS011;10108;50.142;8.724;2024-01-06T06:47:55;11.10;;;4.90;;
19891;SDS011;10108;50.142;8.724;2024-01-06T06:50:21;11.45;;;4.80;;
19891;SDS011;10108;50.142;8.724;2024-01-06T06:52:48;11.80;;;4.80;;
19891;SDS011;10108;50.142;8.724;2024-01-06T06:55:14;10.43;;;4.35;;
19891;SDS011;10108;50.142;8.724;2024-01-06T06:57:40;13.55;;;4.82;;
19891;SDS011;10108;50.142;8.724;2024-01-06T07:00:07;8.80;;;4.53;;
19891;SDS011;10108;50.142;8.724;2024-01-06T07:02:33;12.00;;;5.03;;
19891;SDS011;10108;50.142;8.724;2024-01-06T07:05:00;10.60;;;4.60;;
19891;SDS011;10108;50.142;8.724;2024-01-06T07:07:26;11.60;;;4.65;;
19891;SDS011;10108;50.142;8.724;2024-01-06T07:09:52;10.73;;;4.80;;
19891;SDS011;10108;50.142;8.724;2024-01-06T07:12:18;10.50;;;4.60;;
19891;SDS011;10108;50.142;8.724;2024-01-06T07:14:44;10.50;;;4.50;;
19891;SDS011;10108;50.142;8.724;2024-01-06T07:17:10;11.95;;;4.85;;
19891;SDS011;10108;50.142;8.724;2024-01-06T07:19:36;9.55;;;4.30;;
19891;SDS011;10108;50.142;8.724;2024-01-06T07:22:03;10.77;;;4.70;;
19891;SDS011;10108;50.142;8.724;2024-01-06T07:24:30;9.95;;;4.47;;
19891;SDS011;10108;50.142;8.724;2024-01-06T07:26:56;10.32;;;4.57;;
19891;SDS011;10108;50.142;8.724;2024-01-06T07:29:23;11.35;;;4.78;;
19891;SDS011;10108;50.142;8.724;2024-01-06T07:31:49;10.73;;;4.95;;
19891;SDS011;10108;50.142;8.724;2024-01-06T07:34:15;13.73;;;4.68;;
19891;SDS011;10108;50.142;8.724;2024-01-06T07:36:41;10.18;;;4.47;;
19891;SDS011;10108;50.142;8.724;2024-01-06T07:39:07;9.55;;;4.60;;
19891;SDS011;10108;50.142;8.724;2024-01-06T07:41:34;9.65;;;4.30;;
19891;SDS011;10108;50.142;8.724;2024-01-06T07:44:00;9.27;;;4.47;;
19891;SDS011;10108;50.142;8.724;2024-01-06T07:46:28;13.13;;;4.60;;
19891;SDS011;10108;50.142;8.724;2024-01-06T07:48:55;10.05;;;4.40;;
19891;SDS011;10108;50.142;8.724;2024-01-06T07:51:21;10.80;;;4.30;;
19891;SDS011;10108;50.142;8.724;2024-01-06T07:53:47;8.73;;;4.50;;
19891;SDS011;10108;50.142;8.724;2024-01-06T07:56:13;12.27;;;4.60;;
19891;SDS011;10108;50.142;8.724;2024-01-06T07:58:39;9.95;;;4.40;;
19891;SDS011;10108;50.142;8.724;2024-01-06T08:01:05;10.60;;;4.47;;
19891;SDS011;10108;50.142;8.724;2024-01-06T08:03:31;13.15;;;4.90;;
19891;SDS011;10108;50.142;8.724;2024-01-06T08:05:58;11.73;;;4.63;;
19891;SDS011;10108;50.142;8.724;2024-01-06T08:08:24;14.25;;;5.55;;
19891;SDS011;10108;50.142;8.724;2024-01-06T08:10:50;10.00;;;5.00;;
19891;SDS011;10108;50.142;8.724;2024-01-06T08:13:16;14.80;;;5.25;;
19891;SDS011;10108;50.142;8.724;2024-01-06T08:15:42;9.73;;;4.95;;
19891;SDS011;10108;50.142;8.724;2024-01-06T08:18:08;9.73;;;5.25;;
19891;SDS011;10108;50.142;8.724;2024-01-06T08:20:34;12.27;;;5.63;;
19891;SDS011;10108;50.142;8.724;2024-01-06T08:23:00;12.20;;;4.97;;
19891;SDS011;10108;50.142;8.724;2024-01-06T08:25:27;15.75;;;5.28;;
19891;SDS011;10108;50.142;8.724;2024-01-06T08:27:53;8.75;;;4.78;;
19891;SDS011;10108;50.142;8.724;2024-01-06T08:30:19;13.10;;;5.22;;
19891;SDS011;10108;50.142;8.724;2024-01-06T08:32:45;12.63;;;5.10;;
19891;SDS011;10108;50.142;8.724;2024-01-06T08:35:11;13.70;;;5.60;;
19891;SDS011;10108;50.142;8.724;2024-01-06T08:37:37;10.35;;;5.40;;
19891;SDS011;10108;50.142;8.724;2024-01-06T08:40:03;9.88;;;4.95;;
19891;SDS011;10108;50.142;8.724;2024-01-06T08:42:30;13.20;;;5.40;;
19891;SDS011;10108;50.142;8.724;2024-01-06T08:44:56;13.23;;;5.30;;
19891;SDS011;10108;50.142;8.724;2024-01-06T08:47:22;12.93;;;5.28;;
19891;SDS011;10108;50.142;8.724;2024-01-06T08:49:48;12.00;;;5.32;;
19891;SDS011;10108;50.142;8.724;2024-01-06T08:52:14;13.30;;;5.10;;
19891;SDS011;10108;50.142;8.724;2024-01-06T08:54:41;15.32;;;5.70;;
19891;SDS011;10108;50.142;8.724;2024-01-06T08:57:07;10.30;;;5.30;;
19891;SDS011;10108;50.142;8.724;2024-01-06T08:59:33;12.48;;;5.63;;
19891;SDS011;10108;50.142;8.724;2024-01-06T09:01:59;12.55;;;5.65;;
19891;SDS011;10108;50.142;8.724;2024-01-06T09:04:26;10.13;;;5.30;;
19891;SDS011;10108;50.142;8.724;2024-01-06T09:06:52;10.90;;;5.45;;
19891;SDS011;10108;50.142;8.724;2024-01-06T09:09:18;15.10;;;5.88;;
19891;SDS011;10108;50.142;8.724;2024-01-06T09:11:44;14.68;;;5.45;;
19891;SDS011;10108;50.142;8.724;2024-01-06T09:14:11;12.68;;;5.70;;
19891;SDS011;10108;50.142;8.724;2024-01-06T09:16:37;10.27;;;5.60;;
19891;SDS011;10108;50.142;8.724;2024-01-06T09:19:04;13.32;;;5.65;;
19891;SDS011;10108;50.142;8.724;2024-01-06T09:21:30;10.77;;;5.50;;
19891;SDS011;10108;50.142;8.724;2024-01-06T09:23:56;10.07;;;5.40;;
19891;SDS011;10108;50.142;8.724;2024-01-06T09:26:22;12.65;;;5.50;;
19891;SDS011;10108;50.142;8.724;2024-01-06T09:28:48;12.35;;;5.40;;
19891;SDS011;10108;50.142;8.724;2024-01-06T09:31:15;10.98;;;5.88;;
19891;SDS011;10108;50.142;8.724;2024-01-06T09:33:41;15.68;;;6.07;;
19891;SDS011;10108;50.142;8.724;2024-01-06T09:36:07;13.25;;;5.63;;
19891;SDS011;10108;50.142;8.724;2024-01-06T09:38:37;10.60;;;5.30;;
19891;SDS011;10108;50.142;8.724;2024-01-06T09:41:03;11.32;;;5.20;;
19891;SDS011;10108;50.142;8.724;2024-01-06T09:43:30;11.18;;;5.30;;
19891;SDS011;10108;50.142;8.724;2024-01-06T09:45:58;11.90;;;5.65;;
19891;SDS011;10108;50.142;8.724;2024-01-06T09:48:53;10.32;;;5.20;;
19891;SDS011;10108;50.142;8.724;2024-01-06T09:51:21;12.10;;;5.30;;
19891;SDS011;10108;50.142;8.724;2024-01-06T09:54:01;11.73;;;5.50;;
19891;SDS011;10108;50.142;8.724;2024-01-06T09:56:32;13.95;;;5.40;;
19891;SDS011;10108;50.142;8.724;2024-01-06T09:58:59;13.13;;;6.07;;
19891;SDS011;10108;50.142;8.724;2024-01-06T10:01:25;11.60;;;5.47;;
19891;SDS011;10108;50.142;8.724;2024-01-06T10:03:52;11.57;;;5.57;;
19891;SDS011;10108;50.142;8.724;2024-01-06T10:06:18;12.93;;;5.47;;
19891;SDS011;10108;50.142;8.724;2024-01-06T10:08:49;11.35;;;5.15;;
19891;SDS011;10108;50.142;8.724;2024-01-06T10:11:16;12.93;;;5.50;;
19891;SDS011;10108;50.142;8.724;2024-01-06T10:13:43;10.60;;;5.07;;
19891;SDS011;10108;50.142;8.724;2024-01-06T10:16:09;9.82;;;5.10;;
19891;SDS011;10108;50.142;8.724;2024-01-06T10:18:35;10.27;;;5.18;;
19891;SDS011;10108;50.142;8.724;2024-01-06T10:21:05;14.90;;;5.07;;
19891;SDS011;10108;50.142;8.724;2024-01-06T10:23:32;12.23;;;5.47;;
19891;SDS011;10108;50.142;8.724;2024-01-06T10:25:59;12.50;;;5.72;;
19891;SDS011;10108;50.142;8.724;2024-01-06T10:28:25;12.18;;;5.65;;
19891;SDS011;10108;50.142;8.724;2024-01-06T10:30:52;14.77;;;4.80;;
19891;SDS011;10108;50.142;8.724;2024-01-06T10:33:22;9.88;;;5.40;;
19891;SDS011;10108;50.142;8.724;2024-01-06T10:35:50;8.90;;;4.90;;
19891;SDS011;10108;50.142;8.724;2024-01-06T10:38:16;10.77;;;5.50;;
19891;SDS011;10108;50.142;8.724;2024-01-06T10:43:44;13.05;;;5.30;;
19891;SDS011;10108;50.142;8.724;2024-01-06T10:46:13;9.35;;;5.20;;
19891;SDS011;10108;50.142;8.724;2024-01-06T10:48:41;14.00;;;5.70;;
19891;SDS011;10108;50.142;8.724;2024-01-06T10:51:08;11.00;;;5.20;;
19891;SDS011;10108;50.142;8.724;2024-01-06T10:53:35;14.60;;;5.78;;
19891;SDS011;10108;50.142;8.724;2024-01-06T10:56:03;9.45;;;5.00;;
19891;SDS011;10108;50.142;8.724;2024-01-06T10:58:33;18.60;;;5.45;;
19891;SDS011;10108;50.142;8.724;2024-01-06T11:01:08;10.98;;;5.25;;
19891;SDS011;10108;50.142;8.724;2024-01-06T11:03:36;10.55;;;4.70;;
19891;SDS011;10108;50.142;8.724;2024-01-06T11:06:06;11.00;;;5.38;;
19891;SDS011;10108;50.142;8.724;2024-01-06T11:08:40;12.15;;;5.82;;
19891;SDS011;10108;50.142;8.724;2024-01-06T11:11:18;11.65;;;5.68;;
19891;SDS011;10108;50.142;8.724;2024-01-06T11:13:45;13.20;;;5.60;;
19891;SDS011;10108;50.142;8.724;2024-01-06T11:19:01;12.43;;;5.53;;
19891;SDS011;10108;50.142;8.724;2024-01-06T11:21:29;13.43;;;5.68;;
19891;SDS011;10108;50.142;8.724;2024-01-06T11:26:52;10.70;;;5.45;;
19891;SDS011;10108;50.142;8.724;2024-01-06T11:29:21;13.02;;;5.88;;
19891;SDS011;10108;50.142;8.724;2024-01-06T11:34:52;13.68;;;6.30;;
19891;SDS011;10108;50.142;8.724;2024-01-06T11:37:23;11.65;;;5.72;;
19891;SDS011;10108;50.142;8.724;2024-01-06T11:40:04;9.57;;;5.60;;
19891;SDS011;10108;50.142;8.724;2024-01-06T11:42:33;12.13;;;5.75;;
19891;SDS011;10108;50.142;8.724;2024-01-06T11:45:01;11.43;;;5.45;;
19891;SDS011;10108;50.142;8.724;2024-01-06T11:47:28;11.32;;;5.65;;
19891;SDS011;10108;50.142;8.724;2024-01-06T11:49:56;11.23;;;6.07;;
19891;SDS011;10108;50.142;8.724;2024-01-06T11:52:24;12.70;;;6.05;;
19891;SDS011;10108;50.142;8.724;2024-01-06T11:54:54;10.38;;;5.53;;
19891;SDS011;10108;50.142;8.724;2024-01-06T11:57:22;14.60;;;5.63;;
19891;SDS011;10108;50.142;8.724;2024-01-06T11:59:48;13.55;;;6.05;;
19891;SDS011;10108;50.142;8.724;2024-01-06T12:02:17;12.50;;;6.15;;
19891;SDS011;10108;50.142;8.724;2024-01-06T12:04:50;12.35;;;5.68;;
19891;SDS011;10108;50.142;8.724;2024-01-06T12:07:18;11.15;;;5.85;;
19891;SDS011;10108;50.142;8.724;2024-01-06T12:09:51;14.88;;;6.07;;
19891;SDS011;10108;50.142;8.724;2024-01-06T12:12:26;16.88;;;6.20;;
19891;SDS011;10108;50.142;8.724;2024-01-06T12:14:52;11.95;;;6.30;;
19891;SDS011;10108;50.142;8.724;2024-01-06T12:17:19;15.25;;;6.55;;
19891;SDS011;10108;50.142;8.724;2024-01-06T12:19:47;14.23;;;6.38;;
19891;SDS011;10108;50.142;8.724;2024-01-06T12:22:14;11.18;;;5.75;;
19891;SDS011;10108;50.142;8.724;2024-01-06T12:24:41;11.80;;;5.75;;
19891;SDS011;10108;50.142;8.724;2024-01-06T12:27:08;14.02;;;5.68;;
19891;SDS011;10108;50.142;8.724;2024-01-06T12:29:38;12.20;;;6.50;;
19891;SDS011;10108;50.142;8.724;2024-01-06T12:32:06;11.38;;;6.03;;
19891;SDS011;10108;50.142;8.724;2024-01-06T12:34:33;13.70;;;6.60;;
19891;SDS011;10108;50.142;8.724;2024-01-06T12:37:00;14.65;;;6.25;;
19891;SDS011;10108;50.142;8.724;2024-01-06T12:39:30;13.40;;;6.32;;
19891;SDS011;10108;50.142;8.724;2024-01-06T12:41:56;11.65;;;6.47;;
19891;SDS011;10108;50.142;8.724;2024-01-06T12:44:22;14.43;;;6.68;;
19891;SDS011;10108;50.142;8.724;2024-01-06T12:46:49;14.20;;;6.32;;
19891;SDS011;10108;50.142;8.724;2024-01-06T12:49:15;12.70;;;6.55;;
19891;SDS011;10108;50.142;8.724;2024-01-06T12:51:41;13.88;;;7.18;;
19891;SDS011;10108;50.142;8.724;2024-01-06T12:54:07;13.05;;;6.78;;
19891;SDS011;10108;50.142;8.724;2024-01-06T12:56:33;11.90;;;6.20;;
19891;SDS011;10108;50.142;8.724;2024-01-06T12:58:59;12.63;;;6.82;;
19891;SDS011;10108;50.142;8.724;2024-01-06T13:01:26;14.13;;;6.80;;
19891;SDS011;10108;50.142;8.724;2024-01-06T13:03:52;12.68;;;6.40;;
19891;SDS011;10108;50.142;8.724;2024-01-06T13:06:19;13.40;;;6.10;;
19891;SDS011;10108;50.142;8.724;2024-01-06T13:08:46;11.77;;;5.85;;
19891;SDS011;10108;50.142;8.724;2024-01-06T13:11:12;11.13;;;6.47;;
19891;SDS011;10108;50.142;8.724;2024-01-06T13:13:39;12.45;;;5.60;;
19891;SDS011;10108;50.142;8.724;2024-01-06T13:16:05;12.40;;;5.97;;
19891;SDS011;10108;50.142;8.724;2024-01-06T13:18:31;12.82;;;5.97;;
19891;SDS011;10108;50.142;8.724;2024-01-06T13:20:57;11.63;;;5.75;;
19891;SDS011;10108;50.142;8.724;2024-01-06T13:23:24;8.93;;;5.43;;
19891;SDS011;10108;50.142;8.724;2024-01-06T13:25:50;11.70;;;5.95;;
19891;SDS011;10108;50.142;8.724;2024-01-06T13:28:16;13.80;;;6.00;;
19891;SDS011;10108;50.142;8.724;2024-01-06T13:30:42;10.95;;;5.50;;
19891;SDS011;10108;50.142;8.724;2024-01-06T13:33:08;10.02;;;5.53;;
19891;SDS011;10108;50.142;8.724;2024-01-06T13:35:35;9.57;;;5.60;;
19891;SDS011;10108;50.142;8.724;2024-01-06T13:38:05;9.32;;;5.25;;
19891;SDS011;10108;50.142;8.724;2024-01-06T13:40:32;13.25;;;6.15;;
19891;SDS011;10108;50.142;8.724;2024-01-06T13:42:58;10.93;;;5.40;;
19891;SDS011;10108;50.142;8.724;2024-01-06T13:45:24;10.30;;;5.40;;
19891;SDS011;10108;50.142;8.724;2024-01-06T13:47:50;10.88;;;5.65;;
19891;SDS011;10108;50.142;8.724;2024-01-06T13:50:18;10.48;;;5.53;;
19891;SDS011;10108;50.142;8.724;2024-01-06T13:52:44;11.45;;;5.38;;
19891;SDS011;10108;50.142;8.724;2024-01-06T13:55:14;8.93;;;5.15;;
19891;SDS011;10108;50.142;8.724;2024-01-06T13:57:40;11.15;;;5.50;;
19891;SDS011;10108;50.142;8.724;2024-01-06T14:00:09;10.00;;;5.22;;
19891;SDS011;10108;50.142;8.724;2024-01-06T14:02:44;11.73;;;5.38;;
19891;SDS011;10108;50.142;8.724;2024-01-06T14:05:12;10.13;;;5.10;;
19891;SDS011;10108;50.142;8.724;2024-01-06T14:07:39;9.50;;;5.35;;
19891;SDS011;10108;50.142;8.724;2024-01-06T14:10:13;10.10;;;4.90;;
19891;SDS011;10108;50.142;8.724;2024-01-06T14:12:41;14.27;;;5.53;;
19891;SDS011;10108;50.142;8.724;2024-01-06T14:15:07;11.02;;;5.20;;
19891;SDS011;10108;50.142;8.724;2024-01-06T14:17:34;11.05;;;5.03;;
19891;SDS011;10108;50.142;8.724;2024-01-06T14:20:01;10.35;;;5.47;;
19891;SDS011;10108;50.142;8.724;2024-01-06T14:22:30;11.98;;;5.57;;
19891;SDS011;10108;50.142;8.724;2024-01-06T14:24:56;10.43;;;5.28;;
19891;SDS011;10108;50.142;8.724;2024-01-06T14:27:22;14.05;;;6.45;;
19891;SDS011;10108;50.142;8.724;2024-01-06T14:29:48;9.93;;;5.88;;
19891;SDS011;10108;50.142;8.724;2024-01-06T14:32:15;12.70;;;6.38;;
19891;SDS011;10108;50.142;8.724;2024-01-06T14:34:41;13.95;;;7.03;;
19891;SDS011;10108;50.142;8.724;2024-01-06T14:37:07;10.95;;;5.90;;
19891;SDS011;10108;50.142;8.724;2024-01-06T14:39:33;11.00;;;5.75;;
19891;SDS011;10108;50.142;8.724;2024-01-06T14:42:02;10.75;;;5.72;;
19891;SDS011;10108;50.142;8.724;2024-01-06T14:44:28;12.13;;;6.88;;
19891;SDS011;10108;50.142;8.724;2024-01-06T14:46:55;11.00;;;5.97;;